sensor_id;sensor_type;location;lat;lon;timestamp;P1;durP1;ratioP1;P2;durP2;ratioP2
33862;SDS011;20158;51.436;-2.742;2023-07-31T00:01:48;1.48;;;0.98;;
33862;SDS011;20158;51.436;-2.742;2023-07-31T00:04:14;0.88;;;0.60;;
33862;SDS011;20158;51.436;-2.742;2023-07-31T00:06:40;1.77;;;0.65;;
33862;SDS011;20158;51.436;-2.742;2023-07-31T00:09:06;1.02;;;0.70;;
33862;SDS011;20158;51.436;-2.742;2023-07-31T00:11:32;1.52;;;0.77;;
33862;SDS011;20158;51.436;-2.742;2023-07-31T00:13:58;1.63;;;1.02;;
33862;SDS011;20158;51.436;-2.742;2023-07-31T00:16:24;1.90;;;0.90;;
33862;SDS011;20158;51.436;-2.742;2023-07-31T00:18:51;1.33;;;0.60;;
33862;SDS011;20158;51.436;-2.742;2023-07-31T00:21:17;0.57;;;0.50;;
33862;SDS011;20158;51.436;-2.742;2023-07-31T00:23:42;1.42;;;0.77;;
33862;SDS011;20158;51.436;-2.742;2023-07-31T00:26:08;0.80;;;0.80;;
33862;SDS011;20158;51.436;-2.742;2023-07-31T00:28:34;2.25;;;0.68;;
33862;SDS011;20158;51.436;-2.742;2023-07-31T00:31:00;1.50;;;0.98;;
33862;SDS011;20158;51.436;-2.742;2023-07-31T00:33:29;2.70;;;0.95;;
33862;SDS011;20158;51.436;-2.742;2023-07-31T00:35:57;1.00;;;0.70;;
33862;SDS011;20158;51.436;-2.742;2023-07-31T00:38:25;3.08;;;0.90;;
33862;SDS011;20158;51.436;-2.742;2023-07-31T00:40:51;1.35;;;0.60;;
33862;SDS011;20158;51.436;-2.742;2023-07-31T00:43:17;1.13;;;0.73;;
33862;SDS011;20158;51.436;-2.742;2023-07-31T00:45:44;4.40;;;0.70;;
33862;SDS011;20158;51.436;-2.742;2023-07-31T00:48:10;1.83;;;0.60;;
33862;SDS011;20158;51.436;-2.742;2023-07-31T00:50:37;1.92;;;0.70;;
33862;SDS011;20158;51.436;-2.742;2023-07-31T00:53:04;1.30;;;0.60;;
33862;SDS011;20158;51.436;-2.742;2023-07-31T00:55:32;1.65;;;0.73;;
33862;SDS011;20158;51.436;-2.742;2023-07-31T00:57:59;0.82;;;0.63;;
33862;SDS011;20158;51.436;-2.742;2023-07-31T01:00:25;2.05;;;0.80;;
33862;SDS011;20158;51.436;-2.742;2023-07-31T01:02:51;2.45;;;0.60;;
33862;SDS011;20158;51.436;-2.742;2023-07-31T01:05:19;1.17;;;0.73;;
33862;SDS011;20158;51.436;-2.742;2023-07-31T01:10:46;2.17;;;0.70;;
33862;SDS011;20158;51.436;-2.742;2023-07-31T01:13:18;2.72;;;0.77;;
33862;SDS011;20158;51.436;-2.742;2023-07-31T01:15:45;1.40;;;0.65;;
33862;SDS011;20158;51.436;-2.742;2023-07-31T01:18:11;1.38;;;0.70;;
33862;SDS011;20158;51.436;-2.742;2023-07-31T01:20:37;1.85;;;0.95;;
33862;SDS011;20158;51.436;-2.742;2023-07-31T01:31:12;0.95;;;0.70;;
33862;SDS011;20158;51.436;-2.742;2023-07-31T01:33:42;1.33;;;0.70;;
33862;SDS011;20158;51.436;-2.742;2023-07-31T01:36:08;0.68;;;0.57;;
33862;SDS011;20158;51.436;-2.742;2023-07-31T01:38:34;2.05;;;0.85;;
33862;SDS011;20158;51.436;-2.742;2023-07-31T01:41:01;0.68;;;0.68;;
33862;SDS011;20158;51.436;-2.742;2023-07-31T01:43:27;0.70;;;0.60;;
33862;SDS011;20158;51.436;-2.742;2023-07-31T01:45:53;1.00;;;0.70;;
33862;SDS011;20158;51.436;-2.742;2023-07-31T01:48:19;1.38;;;0.70;;
33862;SDS011;20158;51.436;-2.742;2023-07-31T01:50:45;1.17;;;0.60;;
33862;SDS011;20158;51.436;-2.742;2023-07-31T01:53:11;1.02;;;0.50;;
33862;SDS011;20158;51.436;-2.742;2023-07-31T01:55:38;2.22;;;0.70;;
33862;SDS011;20158;51.436;-2.742;2023-07-31T01:58:04;1.30;;;0.80;;
33862;SDS011;20158;51.436;-2.742;2023-07-31T02:00:30;1.60;;;0.65;;
33862;SDS011;20158;51.436;-2.742;2023-07-31T02:02:56;1.20;;;0.70;;
33862;SDS011;20158;51.436;-2.742;2023-07-31T02:05:22;2.10;;;0.70;;
33862;SDS011;20158;51.436;-2.742;2023-07-31T02:07:48;3.28;;;0.93;;
33862;SDS011;20158;51.436;-2.742;2023-07-31T02:10:14;3.42;;;1.50;;
33862;SDS011;20158;51.436;-2.742;2023-07-31T02:12:40;5.03;;;1.52;;
33862;SDS011;20158;51.436;-2.742;2023-07-31T02:15:06;9.85;;;2.33;;
33862;SDS011;20158;51.436;-2.742;2023-07-31T02:17:32;4.88;;;1.60;;
33862;SDS011;20158;51.436;-2.742;2023-07-31T02:20:00;5.30;;;1.75;;
33862;SDS011;20158;51.436;-2.742;2023-07-31T02:22:26;3.97;;;1.70;;
33862;SDS011;20158;51.436;-2.742;2023-07-31T02:24:52;7.15;;;2.83;;
33862;SDS011;20158;51.436;-2.742;2023-07-31T02:27:21;5.88;;;2.60;;
33862;SDS011;20158;51.436;-2.742;2023-07-31T02:29:49;5.30;;;2.03;;
33862;SDS011;20158;51.436;-2.742;2023-07-31T02:32:15;7.38;;;3.03;;
33862;SDS011;20158;51.436;-2.742;2023-07-31T02:34:41;8.80;;;2.75;;
33862;SDS011;20158;51.436;-2.742;2023-07-31T02:37:07;8.05;;;3.03;;
33862;SDS011;20158;51.436;-2.742;2023-07-31T02:39:33;9.15;;;3.22;;
33862;SDS011;20158;51.436;-2.742;2023-07-31T02:41:59;8.82;;;2.83;;
33862;SDS011;20158;51.436;-2.742;2023-07-31T02:44:25;8.40;;;2.20;;
33862;SDS011;20158;51.436;-2.742;2023-07-31T02:46:52;8.85;;;2.63;;
33862;SDS011;20158;51.436;-2.742;2023-07-31T02:49:18;10.80;;;2.53;;
33862;SDS011;20158;51.436;-2.742;2023-07-31T02:51:46;7.75;;;3.20;;
33862;SDS011;20158;51.436;-2.742;2023-07-31T02:54:12;7.85;;;2.42;;
33862;SDS011;20158;51.436;-2.742;2023-07-31T02:56:38;7.57;;;2.90;;
33862;SDS011;20158;51.436;-2.742;2023-07-31T02:59:04;4.82;;;1.88;;
33862;SDS011;20158;51.436;-2.742;2023-07-31T03:01:30;8.93;;;3.63;;
33862;SDS011;20158;51.436;-2.742;2023-07-31T03:03:56;6.28;;;2.28;;
33862;SDS011;20158;51.436;-2.742;2023-07-31T03:06:23;8.20;;;3.30;;
33862;SDS011;20158;51.436;-2.742;2023-07-31T03:08:48;8.13;;;3.05;;
33862;SDS011;20158;51.436;-2.742;2023-07-31T03:11:15;8.00;;;2.60;;
33862;SDS011;20158;51.436;-2.742;2023-07-31T03:13:41;7.70;;;2.70;;
33862;SDS011;20158;51.436;-2.742;2023-07-31T03:16:07;8.60;;;3.60;;
33862;SDS011;20158;51.436;-2.742;2023-07-31T03:18:32;8.63;;;3.60;;
33862;SDS011;20158;51.436;-2.742;2023-07-31T03:20:58;8.00;;;3.10;;
33862;SDS011;20158;51.436;-2.742;2023-07-31T03:23:24;8.73;;;3.33;;
33862;SDS011;20158;51.436;-2.742;2023-07-31T03:25:57;10.70;;;4.10;;
33862;SDS011;20158;51.436;-2.742;2023-07-31T03:28:27;11.45;;;3.80;;
33862;SDS011;20158;51.436;-2.742;2023-07-31T03:30:53;9.32;;;3.38;;
33862;SDS011;20158;51.436;-2.742;2023-07-31T03:33:19;8.38;;;3.80;;
33862;SDS011;20158;51.436;-2.742;2023-07-31T03:35:45;10.05;;;3.28;;
33862;SDS011;20158;51.436;-2.742;2023-07-31T03:38:11;12.45;;;4.05;;
33862;SDS011;20158;51.436;-2.742;2023-07-31T03:40:37;12.38;;;4.22;;
33862;SDS011;20158;51.436;-2.742;2023-07-31T03:43:03;11.25;;;3.75;;
33862;SDS011;20158;51.436;-2.742;2023-07-31T03:45:29;8.43;;;3.47;;
33862;SDS011;20158;51.436;-2.742;2023-07-31T03:47:55;11.18;;;5.20;;
33862;SDS011;20158;51.436;-2.742;2023-07-31T03:50:23;9.00;;;4.80;;
33862;SDS011;20158;51.436;-2.742;2023-07-31T03:52:50;9.63;;;4.05;;
33862;SDS011;20158;51.436;-2.742;2023-07-31T03:55:16;7.22;;;3.70;;
33862;SDS011;20158;51.436;-2.742;2023-07-31T03:57:43;9.00;;;4.55;;
33862;SDS011;20158;51.436;-2.742;2023-07-31T04:00:09;10.65;;;4.88;;
33862;SDS011;20158;51.436;-2.742;2023-07-31T04:02:40;10.95;;;4.22;;
33862;SDS011;20158;51.436;-2.742;2023-07-31T04:05:07;11.00;;;4.53;;
33862;SDS011;20158;51.436;-2.742;2023-07-31T04:07:33;8.02;;;4.57;;
33862;SDS011;20158;51.436;-2.742;2023-07-31T04:09:59;7.35;;;4.90;;
33862;SDS011;20158;51.436;-2.742;2023-07-31T04:12:25;9.70;;;5.15;;
33862;SDS011;20158;51.436;-2.742;2023-07-31T04:14:51;8.88;;;4.47;;
33862;SDS011;20158;51.436;-2.742;2023-07-31T04:17:18;11.90;;;5.20;;
33862;SDS011;20158;51.436;-2.742;2023-07-31T04:19:44;9.65;;;4.90;;
33862;SDS011;20158;51.436;-2.742;2023-07-31T04:22:09;9.88;;;4.97;;
33862;SDS011;20158;51.436;-2.742;2023-07-31T04:24:35;9.82;;;5.32;;
33862;SDS011;20158;51.436;-2.742;2023-07-31T04:27:01;13.18;;;5.55;;
33862;SDS011;20158;51.436;-2.742;2023-07-31T04:29:27;11.02;;;5.78;;
33862;SDS011;20158;51.436;-2.742;2023-07-31T04:31:53;10.18;;;5.00;;
33862;SDS011;20158;51.436;-2.742;2023-07-31T04:34:19;7.75;;;5.82;;
33862;SDS011;20158;51.436;-2.742;2023-07-31T04:36:45;8.13;;;5.80;;
33862;SDS011;20158;51.436;-2.742;2023-07-31T04:39:11;12.85;;;5.90;;
33862;SDS011;20158;51.436;-2.742;2023-07-31T04:41:37;12.13;;;6.75;;
33862;SDS011;20158;51.436;-2.742;2023-07-31T04:44:03;10.88;;;6.10;;
33862;SDS011;20158;51.436;-2.742;2023-07-31T04:46:29;11.00;;;6.13;;
33862;SDS011;20158;51.436;-2.742;2023-07-31T04:48:55;10.35;;;5.22;;
33862;SDS011;20158;51.436;-2.742;2023-07-31T04:51:22;10.27;;;5.88;;
33862;SDS011;20158;51.436;-2.742;2023-07-31T04:53:49;10.32;;;5.70;;
33862;SDS011;20158;51.436;-2.742;2023-07-31T04:56:15;11.35;;;5.88;;
33862;SDS011;20158;51.436;-2.742;2023-07-31T04:58:41;8.35;;;4.80;;
33862;SDS011;20158;51.436;-2.742;2023-07-31T05:01:07;12.52;;;6.50;;
33862;SDS011;20158;51.436;-2.742;2023-07-31T05:03:33;9.88;;;5.43;;
33862;SDS011;20158;51.436;-2.742;2023-07-31T05:05:59;11.75;;;5.85;;
33862;SDS011;20158;51.436;-2.742;2023-07-31T05:08:25;11.15;;;6.10;;
33862;SDS011;20158;51.436;-2.742;2023-07-31T05:10:51;9.48;;;5.60;;
33862;SDS011;20158;51.436;-2.742;2023-07-31T05:13:17;11.35;;;6.10;;
33862;SDS011;20158;51.436;-2.742;2023-07-31T05:15:43;10.13;;;5.72;;
33862;SDS011;20158;51.436;-2.742;2023-07-31T05:18:09;12.40;;;6.28;;
33862;SDS011;20158;51.436;-2.742;2023-07-31T05:20:35;11.40;;;6.10;;
33862;SDS011;20158;51.436;-2.742;2023-07-31T05:23:00;11.25;;;5.63;;
33862;SDS011;20158;51.436;-2.742;2023-07-31T05:25:26;10.43;;;4.63;;
33862;SDS011;20158;51.436;-2.742;2023-07-31T05:27:52;10.10;;;4.50;;
33862;SDS011;20158;51.436;-2.742;2023-07-31T05:30:18;7.70;;;3.85;;
33862;SDS011;20158;51.436;-2.742;2023-07-31T05:32:44;9.98;;;4.80;;
33862;SDS011;20158;51.436;-2.742;2023-07-31T05:35:10;10.40;;;5.20;;
33862;SDS011;20158;51.436;-2.742;2023-07-31T05:37:36;7.95;;;4.53;;
33862;SDS011;20158;51.436;-2.742;2023-07-31T05:40:02;7.90;;;4.00;;
33862;SDS011;20158;51.436;-2.742;2023-07-31T05:42:28;12.18;;;4.55;;
33862;SDS011;20158;51.436;-2.742;2023-07-31T05:44:55;7.63;;;4.78;;
33862;SDS011;20158;51.436;-2.742;2023-07-31T05:47:20;10.38;;;5.22;;
33862;SDS011;20158;51.436;-2.742;2023-07-31T05:49:46;11.48;;;5.10;;
33862;SDS011;20158;51.436;-2.742;2023-07-31T05:52:13;11.40;;;4.97;;
33862;SDS011;20158;51.436;-2.742;2023-07-31T05:54:39;7.93;;;4.10;;
33862;SDS011;20158;51.436;-2.742;2023-07-31T05:57:05;10.57;;;5.07;;
33862;SDS011;20158;51.436;-2.742;2023-07-31T05:59:31;6.85;;;4.50;;
33862;SDS011;20158;51.436;-2.742;2023-07-31T06:01:58;7.03;;;4.88;;
33862;SDS011;20158;51.436;-2.742;2023-07-31T06:04:24;9.45;;;4.25;;
33862;SDS011;20158;51.436;-2.742;2023-07-31T06:06:51;9.43;;;5.00;;
33862;SDS011;20158;51.436;-2.742;2023-07-31T06:09:17;8.35;;;4.57;;
33862;SDS011;20158;51.436;-2.742;2023-07-31T06:11:43;8.70;;;4.05;;
33862;SDS011;20158;51.436;-2.742;2023-07-31T06:14:08;6.50;;;4.05;;
33862;SDS011;20158;51.436;-2.742;2023-07-31T06:16:35;11.15;;;5.13;;
33862;SDS011;20158;51.436;-2.742;2023-07-31T06:19:01;6.47;;;3.88;;
33862;SDS011;20158;51.436;-2.742;2023-07-31T06:21:27;8.45;;;4.70;;
33862;SDS011;20158;51.436;-2.742;2023-07-31T06:23:53;7.03;;;3.85;;
33862;SDS011;20158;51.436;-2.742;2023-07-31T06:26:19;7.80;;;4.10;;
33862;SDS011;20158;51.436;-2.742;2023-07-31T06:28:45;4.85;;;3.03;;
33862;SDS011;20158;51.436;-2.742;2023-07-31T06:31:11;10.32;;;4.90;;
33862;SDS011;20158;51.436;-2.742;2023-07-31T06:33:38;5.28;;;3.67;;
33862;SDS011;20158;51.436;-2.742;2023-07-31T06:36:04;8.23;;;4.35;;
33862;SDS011;20158;51.436;-2.742;2023-07-31T06:38:29;6.13;;;3.55;;
33862;SDS011;20158;51.436;-2.742;2023-07-31T06:40:55;7.95;;;4.20;;
33862;SDS011;20158;51.436;-2.742;2023-07-31T06:43:21;8.02;;;3.30;;
33862;SDS011;20158;51.436;-2.742;2023-07-31T06:45:47;9.82;;;4.47;;
33862;SDS011;20158;51.436;-2.742;2023-07-31T06:48:16;5.25;;;2.78;;
33862;SDS011;20158;51.436;-2.742;2023-07-31T06:50:42;5.28;;;2.85;;
33862;SDS011;20158;51.436;-2.742;2023-07-31T06:53:08;7.03;;;3.50;;
33862;SDS011;20158;51.436;-2.742;2023-07-31T06:55:34;6.88;;;3.05;;
33862;SDS011;20158;51.436;-2.742;2023-07-31T06:58:00;7.55;;;3.50;;
33862;SDS011;20158;51.436;-2.742;2023-07-31T07:00:26;7.30;;;3.85;;
33862;SDS011;20158;51.436;-2.742;2023-07-31T07:02:52;6.85;;;3.78;;
33862;SDS011;20158;51.436;-2.742;2023-07-31T07:05:18;7.57;;;3.40;;
33862;SDS011;20158;51.436;-2.742;2023-07-31T07:07:44;8.73;;;3.50;;
33862;SDS011;20158;51.436;-2.742;2023-07-31T07:10:10;8.80;;;3.70;;
33862;SDS011;20158;51.436;-2.742;2023-07-31T07:12:36;6.22;;;3.40;;
33862;SDS011;20158;51.436;-2.742;2023-07-31T07:15:02;6.57;;;2.67;;
33862;SDS011;20158;51.436;-2.742;2023-07-31T07:17:29;5.03;;;2.97;;
33862;SDS011;20158;51.436;-2.742;2023-07-31T07:19:59;5.95;;;3.03;;
33862;SDS011;20158;51.436;-2.742;2023-07-31T07:22:26;7.88;;;3.25;;
33862;SDS011;20158;51.436;-2.742;2023-07-31T07:24:52;5.25;;;3.17;;
33862;SDS011;20158;51.436;-2.742;2023-07-31T07:27:19;4.07;;;2.53;;
33862;SDS011;20158;51.436;-2.742;2023-07-31T07:29:45;6.22;;;2.53;;
33862;SDS011;20158;51.436;-2.742;2023-07-31T07:32:12;6.32;;;3.00;;
33862;SDS011;20158;51.436;-2.742;2023-07-31T07:34:38;4.07;;;2.22;;
33862;SDS011;20158;51.436;-2.742;2023-07-31T07:37:04;6.53;;;2.53;;
33862;SDS011;20158;51.436;-2.742;2023-07-31T07:39:30;3.10;;;2.42;;
33862;SDS011;20158;51.436;-2.742;2023-07-31T07:41:56;4.15;;;2.42;;
33862;SDS011;20158;51.436;-2.742;2023-07-31T07:44:22;7.53;;;2.60;;
33862;SDS011;20158;51.436;-2.742;2023-07-31T07:46:48;7.45;;;2.50;;
33862;SDS011;20158;51.436;-2.742;2023-07-31T07:49:14;4.25;;;2.50;;
33862;SDS011;20158;51.436;-2.742;2023-07-31T07:51:40;5.05;;;2.33;;
33862;SDS011;20158;51.436;-2.742;2023-07-31T07:54:06;6.68;;;3.13;;
33862;SDS011;20158;51.436;-2.742;2023-07-31T07:56:32;5.50;;;2.63;;
33862;SDS011;20158;51.436;-2.742;2023-07-31T07:58:58;5.28;;;2.63;;
33862;SDS011;20158;51.436;-2.742;2023-07-31T08:01:24;5.78;;;2.22;;
33862;SDS011;20158;51.436;-2.742;2023-07-31T08:03:50;6.55;;;3.08;;
33862;SDS011;20158;51.436;-2.742;2023-07-31T08:06:16;5.32;;;2.45;;
33862;SDS011;20158;51.436;-2.742;2023-07-31T08:08:42;7.28;;;2.92;;
33862;SDS011;20158;51.436;-2.742;2023-07-31T08:11:08;5.13;;;2.97;;
33862;SDS011;20158;51.436;-2.742;2023-07-31T08:13:34;4.72;;;2.33;;
33862;SDS011;20158;51.436;-2.742;2023-07-31T08:16:02;5.07;;;2.70;;
33862;SDS011;20158;51.436;-2.742;2023-07-31T08:18:30;7.60;;;2.50;;
33862;SDS011;20158;51.436;-2.742;2023-07-31T08:20:57;5.13;;;3.33;;
33862;SDS011;20158;51.436;-2.742;2023-07-31T08:23:23;7.47;;;3.03;;
33862;SDS011;20158;51.436;-2.742;2023-07-31T08:25:49;7.25;;;3.17;;
33862;SDS011;20158;51.436;-2.742;2023-07-31T08:28:16;9.20;;;3.83;;
33862;SDS011;20158;51.436;-2.742;2023-07-31T08:30:42;7.95;;;3.50;;
33862;SDS011;20158;51.436;-2.742;2023-07-31T08:33:08;5.90;;;3.40;;
33862;SDS011;20158;51.436;-2.742;2023-07-31T08:35:34;10.48;;;3.85;;
33862;SDS011;20158;51.436;-2.742;2023-07-31T08:38:00;8.35;;;3.60;;
33862;SDS011;20158;51.436;-2.742;2023-07-31T08:40:26;8.88;;;4.47;;
33862;SDS011;20158;51.436;-2.742;2023-07-31T08:42:54;7.95;;;4.07;;
33862;SDS011;20158;51.436;-2.742;2023-07-31T08:45:22;9.40;;;3.58;;
33862;SDS011;20158;51.436;-2.742;2023-07-31T08:47:48;8.77;;;4.40;;
33862;SDS011;20158;51.436;-2.742;2023-07-31T08:50:17;10.40;;;4.63;;
33862;SDS011;20158;51.436;-2.742;2023-07-31T08:52:48;14.88;;;5.65;;
33862;SDS011;20158;51.436;-2.742;2023-07-31T08:55:15;10.05;;;4.90;;
33862;SDS011;20158;51.436;-2.742;2023-07-31T08:57:41;9.48;;;4.97;;
33862;SDS011;20158;51.436;-2.742;2023-07-31T09:00:08;13.48;;;4.97;;
33862;SDS011;20158;51.436;-2.742;2023-07-31T09:05:19;13.75;;;5.80;;
33862;SDS011;20158;51.436;-2.742;2023-07-31T09:07:48;12.57;;;5.13;;
33862;SDS011;20158;51.436;-2.742;2023-07-31T09:10:16;12.73;;;5.60;;
33862;SDS011;20158;51.436;-2.742;2023-07-31T09:12:42;11.25;;;5.18;;
33862;SDS011;20158;51.436;-2.742;2023-07-31T09:15:09;13.07;;;5.20;;
33862;SDS011;20158;51.436;-2.742;2023-07-31T09:17:36;14.35;;;5.43;;
33862;SDS011;20158;51.436;-2.742;2023-07-31T09:20:18;10.23;;;5.05;;
33862;SDS011;20158;51.436;-2.742;2023-07-31T09:22:46;8.25;;;4.38;;
33862;SDS011;20158;51.436;-2.742;2023-07-31T09:25:20;10.23;;;4.97;;
33862;SDS011;20158;51.436;-2.742;2023-07-31T09:30:20;10.73;;;5.43;;
33862;SDS011;20158;51.436;-2.742;2023-07-31T09:32:47;14.85;;;5.85;;
33862;SDS011;20158;51.436;-2.742;2023-07-31T09:35:21;10.30;;;5.88;;
33862;SDS011;20158;51.436;-2.742;2023-07-31T09:37:53;13.27;;;5.45;;
33862;SDS011;20158;51.436;-2.742;2023-07-31T09:40:30;9.27;;;4.93;;
33862;SDS011;20158;51.436;-2.742;2023-07-31T09:43:03;10.98;;;5.60;;
33862;SDS011;20158;51.436;-2.742;2023-07-31T09:45:34;12.02;;;5.90;;
33862;SDS011;20158;51.436;-2.742;2023-07-31T09:48:02;12.88;;;6.22;;
33862;SDS011;20158;51.436;-2.742;2023-07-31T09:50:28;11.82;;;5.45;;
33862;SDS011;20158;51.436;-2.742;2023-07-31T09:52:55;11.45;;;5.43;;
33862;SDS011;20158;51.436;-2.742;2023-07-31T09:55:20;12.65;;;6.45;;
33862;SDS011;20158;51.436;-2.742;2023-07-31T09:57:47;12.60;;;6.38;;
33862;SDS011;20158;51.436;-2.742;2023-07-31T10:00:16;10.32;;;4.93;;
33862;SDS011;20158;51.436;-2.742;2023-07-31T10:02:46;10.85;;;5.47;;
33862;SDS011;20158;51.436;-2.742;2023-07-31T10:05:15;14.57;;;6.57;;
33862;SDS011;20158;51.436;-2.742;2023-07-31T10:07:42;11.38;;;5.78;;
33862;SDS011;20158;51.436;-2.742;2023-07-31T10:10:16;13.10;;;5.65;;
33862;SDS011;20158;51.436;-2.742;2023-07-31T10:12:46;12.23;;;5.72;;
33862;SDS011;20158;51.436;-2.742;2023-07-31T10:15:14;15.55;;;5.78;;
33862;SDS011;20158;51.436;-2.742;2023-07-31T10:17:40;11.23;;;5.63;;
33862;SDS011;20158;51.436;-2.742;2023-07-31T10:20:07;12.68;;;5.75;;
33862;SDS011;20158;51.436;-2.742;2023-07-31T10:22:34;13.13;;;5.88;;
33862;SDS011;20158;51.436;-2.742;2023-07-31T10:25:01;13.70;;;6.25;;
33862;SDS011;20158;51.436;-2.742;2023-07-31T10:27:28;11.80;;;5.85;;
33862;SDS011;20158;51.436;-2.742;2023-07-31T10:29:54;13.98;;;6.10;;
33862;SDS011;20158;51.436;-2.742;2023-07-31T10:32:23;12.65;;;5.40;;
33862;SDS011;20158;51.436;-2.742;2023-07-31T10:34:51;12.98;;;5.47;;
33862;SDS011;20158;51.436;-2.742;2023-07-31T10:37:22;11.35;;;6.05;;
33862;SDS011;20158;51.436;-2.742;2023-07-31T10:39:55;11.60;;;4.78;;
33862;SDS011;20158;51.436;-2.742;2023-07-31T10:42:47;13.43;;;5.85;;
33862;SDS011;20158;51.436;-2.742;2023-07-31T10:45:14;11.40;;;4.85;;
33862;SDS011;20158;51.436;-2.742;2023-07-31T10:48:02;15.77;;;6.13;;
33862;SDS011;20158;51.436;-2.742;2023-07-31T10:50:30;7.80;;;4.85;;
33862;SDS011;20158;51.436;-2.742;2023-07-31T10:53:00;13.90;;;5.00;;
33862;SDS011;20158;51.436;-2.742;2023-07-31T10:58:07;9.93;;;5.78;;
33862;SDS011;20158;51.436;-2.742;2023-07-31T11:00:36;12.50;;;5.78;;
33862;SDS011;20158;51.436;-2.742;2023-07-31T11:03:07;11.00;;;5.50;;
33862;SDS011;20158;51.436;-2.742;2023-07-31T11:05:46;13.10;;;5.63;;
33862;SDS011;20158;51.436;-2.742;2023-07-31T11:08:23;12.98;;;5.78;;
33862;SDS011;20158;51.436;-2.742;2023-07-31T11:13:16;14.90;;;6.07;;
33862;SDS011;20158;51.436;-2.742;2023-07-31T11:15:42;14.68;;;6.32;;
33862;SDS011;20158;51.436;-2.742;2023-07-31T11:18:08;12.88;;;6.00;;
33862;SDS011;20158;51.436;-2.742;2023-07-31T11:20:36;9.25;;;5.50;;
33862;SDS011;20158;51.436;-2.742;2023-07-31T11:23:03;12.02;;;5.82;;
33862;SDS011;20158;51.436;-2.742;2023-07-31T11:25:34;12.02;;;6.47;;
33862;SDS011;20158;51.436;-2.742;2023-07-31T11:28:10;10.30;;;5.47;;
33862;SDS011;20158;51.436;-2.742;2023-07-31T11:30:40;14.27;;;5.72;;
33862;SDS011;20158;51.436;-2.742;2023-07-31T11:33:08;12.07;;;5.63;;
33862;SDS011;20158;51.436;-2.742;2023-07-31T11:35:36;10.75;;;5.10;;
33862;SDS011;20158;51.436;-2.742;2023-07-31T11:38:23;11.25;;;5.35;;
33862;SDS011;20158;51.436;-2.742;2023-07-31T11:40:49;17.55;;;7.13;;
33862;SDS011;20158;51.436;-2.742;2023-07-31T11:43:17;15.98;;;6.57;;
33862;SDS011;20158;51.436;-2.742;2023-07-31T11:45:47;14.32;;;6.03;;
33862;SDS011;20158;51.436;-2.742;2023-07-31T11:48:23;16.05;;;6.30;;
33862;SDS011;20158;51.436;-2.742;2023-07-31T11:50:50;19.05;;;7.40;;
33862;SDS011;20158;51.436;-2.742;2023-07-31T11:53:19;16.48;;;6.47;;
33862;SDS011;20158;51.436;-2.742;2023-07-31T11:55:48;16.88;;;7.03;;
33862;SDS011;20158;51.436;-2.742;2023-07-31T11:58:15;12.95;;;5.28;;
33862;SDS011;20158;51.436;-2.742;2023-07-31T12:00:42;14.75;;;6.30;;
33862;SDS011;20158;51.436;-2.742;2023-07-31T12:03:08;13.25;;;6.00;;
33862;SDS011;20158;51.436;-2.742;2023-07-31T12:05:36;14.15;;;5.97;;
33862;SDS011;20158;51.436;-2.742;2023-07-31T12:08:08;16.90;;;6.32;;
33862;SDS011;20158;51.436;-2.742;2023-07-31T12:10:37;17.17;;;7.15;;
33862;SDS011;20158;51.436;-2.742;2023-07-31T12:13:04;13.40;;;5.90;;
33862;SDS011;20158;51.436;-2.742;2023-07-31T12:15:35;12.57;;;5.32;;
33862;SDS011;20158;51.436;-2.742;2023-07-31T12:18:04;14.27;;;6.80;;
33862;SDS011;20158;51.436;-2.742;2023-07-31T12:20:34;8.98;;;5.68;;
33862;SDS011;20158;51.436;-2.742;2023-07-31T12:23:01;13.10;;;6.25;;
33862;SDS011;20158;51.436;-2.742;2023-07-31T12:25:28;12.95;;;5.35;;
33862;SDS011;20158;51.436;-2.742;2023-07-31T12:27:55;10.82;;;5.65;;
33862;SDS011;20158;51.436;-2.742;2023-07-31T12:30:28;17.73;;;6.68;;
33862;SDS011;20158;51.436;-2.742;2023-07-31T12:32:55;20.42;;;6.70;;
33862;SDS011;20158;51.436;-2.742;2023-07-31T12:35:21;10.55;;;5.53;;
33862;SDS011;20158;51.436;-2.742;2023-07-31T12:37:46;9.00;;;5.55;;
33862;SDS011;20158;51.436;-2.742;2023-07-31T12:40:13;8.75;;;4.70;;
33862;SDS011;20158;51.436;-2.742;2023-07-31T12:42:40;14.30;;;6.95;;
33862;SDS011;20158;51.436;-2.742;2023-07-31T12:45:07;11.60;;;6.13;;
33862;SDS011;20158;51.436;-2.742;2023-07-31T12:47:33;13.88;;;6.45;;
33862;SDS011;20158;51.436;-2.742;2023-07-31T12:50:00;11.80;;;6.28;;
33862;SDS011;20158;51.436;-2.742;2023-07-31T12:52:26;12.77;;;6.70;;
33862;SDS011;20158;51.436;-2.742;2023-07-31T12:54:52;10.23;;;6.00;;
33862;SDS011;20158;51.436;-2.742;2023-07-31T12:57:18;11.93;;;6.05;;
33862;SDS011;20158;51.436;-2.742;2023-07-31T12:59:45;11.57;;;5.93;;
33862;SDS011;20158;51.436;-2.742;2023-07-31T13:02:11;11.55;;;5.40;;
33862;SDS011;20158;51.436;-2.742;2023-07-31T13:04:37;11.00;;;6.13;;
33862;SDS011;20158;51.436;-2.742;2023-07-31T13:07:03;10.40;;;5.43;;
33862;SDS011;20158;51.436;-2.742;2023-07-31T13:09:29;8.13;;;5.43;;
33862;SDS011;20158;51.436;-2.742;2023-07-31T13:11:55;10.27;;;5.90;;
33862;SDS011;20158;51.436;-2.742;2023-07-31T13:14:21;9.40;;;5.45;;
33862;SDS011;20158;51.436;-2.742;2023-07-31T13:16:47;11.05;;;5.43;;
33862;SDS011;20158;51.436;-2.742;2023-07-31T13:19:13;8.70;;;5.40;;
33862;SDS011;20158;51.436;-2.742;2023-07-31T13:21:39;12.35;;;5.88;;
33862;SDS011;20158;51.436;-2.742;2023-07-31T13:24:05;13.13;;;6.43;;
33862;SDS011;20158;51.436;-2.742;2023-07-31T13:26:31;12.48;;;6.80;;
33862;SDS011;20158;51.436;-2.742;2023-07-31T13:28:57;14.23;;;6.55;;
33862;SDS011;20158;51.436;-2.742;2023-07-31T13:31:23;8.65;;;5.53;;
33862;SDS011;20158;51.436;-2.742;2023-07-31T13:33:49;11.20;;;5.90;;
33862;SDS011;20158;51.436;-2.742;2023-07-31T13:36:15;10.80;;;5.13;;
33862;SDS011;20158;51.436;-2.742;2023-07-31T13:38:41;10.88;;;4.90;;
33862;SDS011;20158;51.436;-2.742;2023-07-31T13:41:06;14.98;;;6.75;;
33862;SDS011;20158;51.436;-2.742;2023-07-31T13:43:32;10.25;;;4.90;;
33862;SDS011;20158;51.436;-2.742;2023-07-31T13:45:58;14.63;;;5.55;;
33862;SDS011;20158;51.436;-2.742;2023-07-31T13:48:33;8.27;;;5.65;;
33862;SDS011;20158;51.436;-2.742;2023-07-31T13:51:02;9.10;;;5.15;;
33862;SDS011;20158;51.436;-2.742;2023-07-31T13:53:28;10.07;;;5.82;;
33862;SDS011;20158;51.436;-2.742;2023-07-31T13:55:54;10.10;;;5.97;;
33862;SDS011;20158;51.436;-2.742;2023-07-31T13:58:20;9.77;;;6.13;;
33862;SDS011;20158;51.436;-2.742;2023-07-31T14:00:46;8.93;;;5.13;;
33862;SDS011;20158;51.436;-2.742;2023-07-31T14:03:12;9.02;;;5.45;;
33862;SDS011;20158;51.436;-2.742;2023-07-31T14:05:38;7.90;;;4.55;;
33862;SDS011;20158;51.436;-2.742;2023-07-31T14:08:04;9.10;;;4.22;;
33862;SDS011;20158;51.436;-2.742;2023-07-31T14:10:30;10.10;;;5.10;;
33862;SDS011;20158;51.436;-2.742;2023-07-31T14:12:55;8.45;;;4.68;;
33862;SDS011;20158;51.436;-2.742;2023-07-31T14:15:21;9.98;;;5.20;;
33862;SDS011;20158;51.436;-2.742;2023-07-31T14:17:48;7.40;;;4.30;;
33862;SDS011;20158;51.436;-2.742;2023-07-31T14:20:13;6.97;;;4.15;;
33862;SDS011;20158;51.436;-2.742;2023-07-31T14:22:39;5.32;;;3.78;;
33862;SDS011;20158;51.436;-2.742;2023-07-31T14:25:06;7.25;;;3.85;;
33862;SDS011;20158;51.436;-2.742;2023-07-31T14:27:32;7.72;;;4.80;;
33862;SDS011;20158;51.436;-2.742;2023-07-31T14:29:58;9.05;;;4.40;;
33862;SDS011;20158;51.436;-2.742;2023-07-31T14:32:24;10.93;;;5.28;;
33862;SDS011;20158;51.436;-2.742;2023-07-31T14:34:51;8.98;;;4.43;;
33862;SDS011;20158;51.436;-2.742;2023-07-31T14:37:17;6.55;;;3.80;;
33862;SDS011;20158;51.436;-2.742;2023-07-31T14:39:43;9.73;;;5.03;;
33862;SDS011;20158;51.436;-2.742;2023-07-31T14:42:09;8.10;;;4.20;;
33862;SDS011;20158;51.436;-2.742;2023-07-31T14:44:35;8.70;;;4.80;;
33862;SDS011;20158;51.436;-2.742;2023-07-31T14:47:01;7.15;;;4.50;;
33862;SDS011;20158;51.436;-2.742;2023-07-31T14:49:27;7.00;;;4.22;;